Time;durP1;ratioP1;P1;durP2;ratioP2;P2;SDS_P1;SDS_P2;PMS_P1;PMS_P2;Temp;Humidity;BMP_temperature;BMP_pressure;BME280_temperature;BME280_humidity;BME280_pressure;Samples;Min_cycle;Max_cycle;Signal;HPM_P1;HPM_P2
2021/09/11 00:00:30;;;;;;;12.30;8.43;;;17.10;99.90;;;;;;5047111;28;20028;-75
2021/09/11 00:02:56;;;;;;;16.05;8.75;;;17.10;99.90;;;;;;5046131;28;20028;-75
2021/09/11 00:05:23;;;;;;;10.88;8.02;;;17.10;99.90;;;;;;5045550;28;20064;-75
2021/09/11 00:07:49;;;;;;;14.15;8.80;;;17.00;99.90;;;;;;5045167;28;20036;-75
2021/09/11 00:10:15;;;;;;;11.68;8.25;;;17.00;99.90;;;;;;5048176;28;20025;-75
2021/09/11 00:12:40;;;;;;;17.50;8.73;;;17.00;99.90;;;;;;5046506;28;20021;-75
2021/09/11 00:15:08;;;;;;;13.82;8.50;;;17.00;99.90;;;;;;5046748;28;20515;-75
2021/09/11 00:17:34;;;;;;;12.43;8.68;;;17.00;99.90;;;;;;5044431;28;20437;-75
2021/09/11 00:20:00;;;;;;;14.07;8.80;;;17.00;99.90;;;;;;5046968;28;20025;-75
2021/09/11 00:22:25;;;;;;;16.60;8.52;;;17.00;99.90;;;;;;5047586;28;20085;-75
2021/09/11 00:24:51;;;;;;;16.35;8.57;;;16.90;99.90;;;;;;5047760;28;20057;-75
2021/09/11 00:27:16;;;;;;;14.45;8.20;;;16.90;99.90;;;;;;5047200;28;20020;-75
2021/09/11 00:29:42;;;;;;;15.60;9.27;;;16.90;99.90;;;;;;5048138;28;20387;-75
2021/09/11 00:32:08;;;;;;;13.02;8.88;;;16.90;99.90;;;;;;5046389;28;20031;-75
2021/09/11 00:34:33;;;;;;;15.88;8.68;;;16.90;99.90;;;;;;5047226;28;20471;-75
2021/09/11 00:36:59;;;;;;;14.30;8.75;;;16.80;99.90;;;;;;5046000;28;20040;-75
2021/09/11 00:39:24;;;;;;;13.38;8.65;;;16.90;99.90;;;;;;5047558;28;20076;-75
2021/09/11 00:41:51;;;;;;;15.52;8.80;;;16.80;99.90;;;;;;5048631;28;20032;-75
2021/09/11 00:44:16;;;;;;;13.55;8.73;;;16.80;99.90;;;;;;5048286;28;20091;-75
2021/09/11 00:46:42;;;;;;;13.07;8.70;;;16.80;99.90;;;;;;5041858;28;20025;-75
2021/09/11 00:49:07;;;;;;;16.83;9.38;;;16.80;99.90;;;;;;5046300;28;20100;-75
2021/09/11 00:51:33;;;;;;;13.35;8.88;;;16.80;99.90;;;;;;5037551;28;20041;-75
2021/09/11 00:54:00;;;;;;;16.00;9.95;;;16.80;99.90;;;;;;5041884;28;20029;-75
2021/09/11 00:56:27;;;;;;;17.02;8.57;;;16.80;99.90;;;;;;5044756;28;20554;-75
2021/09/11 00:58:52;;;;;;;18.05;10.52;;;16.70;99.90;;;;;;5049463;28;20064;-75
2021/09/11 01:01:18;;;;;;;19.52;9.48;;;16.80;99.90;;;;;;5046935;28;20484;-75
2021/09/11 01:03:43;;;;;;;17.83;9.45;;;16.90;99.90;;;;;;5047250;28;20032;-75
2021/09/11 01:06:10;;;;;;;16.52;10.70;;;16.90;99.90;;;;;;5046053;28;20085;-75
2021/09/11 01:08:38;;;;;;;14.07;8.95;;;16.80;99.90;;;;;;5042883;28;20029;-75
2021/09/11 01:11:04;;;;;;;19.42;10.10;;;16.90;99.90;;;;;;5047606;28;20025;-75
2021/09/11 01:13:31;;;;;;;14.40;9.77;;;16.80;99.90;;;;;;5045310;28;20159;-75
2021/09/11 01:15:58;;;;;;;15.25;10.52;;;16.80;99.90;;;;;;5046299;28;20135;-75
2021/09/11 01:18:25;;;;;;;15.85;9.35;;;16.80;99.90;;;;;;5048484;28;20530;-76
2021/09/11 01:20:51;;;;;;;18.90;10.10;;;16.80;99.90;;;;;;5045848;28;20037;-75
2021/09/11 01:23:16;;;;;;;14.90;9.50;;;16.80;99.90;;;;;;5044951;28;20029;-75
2021/09/11 01:25:42;;;;;;;17.10;9.90;;;16.80;99.90;;;;;;5045938;28;20391;-75
2021/09/11 01:28:07;;;;;;;15.75;10.98;;;16.80;99.90;;;;;;5046460;28;20020;-75
2021/09/11 01:30:33;;;;;;;16.60;10.02;;;16.80;99.90;;;;;;5044016;28;20445;-75
2021/09/11 01:32:58;;;;;;;17.75;10.18;;;16.80;99.90;;;;;;5046135;28;20610;-75
2021/09/11 01:35:24;;;;;;;15.63;11.43;;;16.80;99.90;;;;;;5045838;28;20481;-75
2021/09/11 01:37:49;;;;;;;18.65;9.40;;;16.70;99.90;;;;;;5040631;28;20038;-75
2021/09/11 01:40:15;;;;;;;15.77;10.10;;;16.80;99.90;;;;;;5045870;28;20377;-75
2021/09/11 01:42:41;;;;;;;14.50;10.02;;;16.70;99.90;;;;;;5045516;28;20033;-75
2021/09/11 01:45:15;;;;;;;15.02;9.52;;;16.80;99.90;;;;;;5047073;28;20040;-75
2021/09/11 01:47:42;;;;;;;15.00;9.73;;;16.70;99.90;;;;;;5043921;28;20112;-75
2021/09/11 01:50:10;;;;;;;17.42;9.45;;;16.70;99.90;;;;;;5045596;28;20025;-75
2021/09/11 01:52:35;;;;;;;16.90;10.15;;;16.70;99.90;;;;;;5047755;28;20037;-75
2021/09/11 01:55:04;;;;;;;19.92;9.48;;;16.70;99.90;;;;;;5044689;28;20032;-75
2021/09/11 01:57:29;;;;;;;12.80;9.00;;;16.70;99.90;;;;;;5045812;28;20056;-75
2021/09/11 01:59:55;;;;;;;15.60;10.40;;;16.70;99.90;;;;;;5046696;28;20045;-75
2021/09/11 02:02:20;;;;;;;15.57;10.15;;;16.60;99.90;;;;;;5052453;28;20059;-75
2021/09/11 02:04:46;;;;;;;18.15;9.65;;;16.60;99.90;;;;;;5046491;28;20037;-75
2021/09/11 02:07:11;;;;;;;15.50;10.00;;;16.60;99.90;;;;;;5047723;28;20033;-76
2021/09/11 02:09:37;;;;;;;16.55;10.95;;;16.70;99.90;;;;;;5052314;28;20517;-75
2021/09/11 02:12:03;;;;;;;15.90;10.57;;;16.70;99.90;;;;;;5048058;28;20204;-75
2021/09/11 02:14:28;;;;;;;19.58;12.20;;;16.60;99.90;;;;;;5049067;28;20079;-75
2021/09/11 02:16:54;;;;;;;15.45;10.55;;;16.60;99.90;;;;;;5045044;28;20033;-75
2021/09/11 02:19:19;;;;;;;32.67;11.00;;;16.60;99.90;;;;;;5050631;28;20052;-74
2021/09/11 02:21:45;;;;;;;18.20;11.15;;;16.60;99.90;;;;;;5050191;28;20083;-75
2021/09/11 02:24:10;;;;;;;17.40;11.13;;;16.70;99.90;;;;;;5050468;28;20028;-75
2021/09/11 02:26:36;;;;;;;23.20;12.30;;;16.60;99.90;;;;;;5057022;28;20029;-75
2021/09/11 02:29:03;;;;;;;18.13;11.40;;;16.60;99.90;;;;;;5049750;28;20021;-75
2021/09/11 02:31:29;;;;;;;22.27;13.48;;;16.60;99.90;;;;;;5049165;28;20029;-75
2021/09/11 02:33:55;;;;;;;20.98;12.15;;;16.60;99.90;;;;;;5048188;28;20091;-75
2021/09/11 02:36:20;;;;;;;17.70;11.57;;;16.60;99.90;;;;;;5042342;28;20484;-75
2021/09/11 02:38:46;;;;;;;24.42;14.40;;;16.60;99.90;;;;;;5047826;28;20031;-75
2021/09/11 02:41:11;;;;;;;17.75;11.32;;;16.60;99.90;;;;;;5048073;28;20306;-75
2021/09/11 02:43:37;;;;;;;18.55;12.20;;;16.70;99.90;;;;;;5047174;28;20056;-75
2021/09/11 02:46:03;;;;;;;20.15;13.27;;;16.70;99.90;;;;;;5049167;28;20025;-75
2021/09/11 02:48:28;;;;;;;18.40;12.15;;;16.60;99.90;;;;;;5050316;28;20029;-74
2021/09/11 02:50:54;;;;;;;20.52;12.65;;;16.60;99.90;;;;;;5046275;28;20052;-73
2021/09/11 02:53:19;;;;;;;21.80;13.63;;;16.60;99.90;;;;;;5043370;28;20021;-73
2021/09/11 02:55:45;;;;;;;17.10;12.02;;;16.60;99.90;;;;;;5044357;28;20123;-73
2021/09/11 02:58:10;;;;;;;18.13;12.00;;;16.60;99.90;;;;;;5047492;28;20028;-73
2021/09/11 03:00:36;;;;;;;19.55;11.82;;;16.60;99.90;;;;;;5049124;28;20043;-73
2021/09/11 03:03:02;;;;;;;16.15;11.48;;;16.60;99.90;;;;;;5044883;28;20036;-73
2021/09/11 03:05:28;;;;;;;21.08;11.98;;;16.50;99.90;;;;;;5049287;28;20420;-73
2021/09/11 03:07:53;;;;;;;19.55;11.93;;;16.50;99.90;;;;;;5047115;28;20032;-72
2021/09/11 03:10:19;;;;;;;20.95;12.55;;;16.50;99.90;;;;;;5047970;28;20029;-73
2021/09/11 03:12:44;;;;;;;15.77;11.27;;;16.40;99.90;;;;;;5048752;28;20020;-73
2021/09/11 03:15:10;;;;;;;15.75;11.00;;;16.40;99.90;;;;;;5045835;28;20035;-73
2021/09/11 03:17:36;;;;;;;15.48;11.02;;;16.50;99.90;;;;;;5043221;28;20056;-72
2021/09/11 03:20:02;;;;;;;15.77;11.05;;;16.40;99.90;;;;;;5048523;28;20049;-72
2021/09/11 03:22:27;;;;;;;15.73;10.90;;;16.40;99.90;;;;;;5045561;28;20025;-72
2021/09/11 03:24:53;;;;;;;17.75;11.13;;;16.50;99.90;;;;;;5047151;28;20032;-73
2021/09/11 03:27:18;;;;;;;16.13;10.85;;;16.50;99.90;;;;;;5047873;28;20031;-72
2021/09/11 03:29:44;;;;;;;15.38;10.60;;;16.40;99.90;;;;;;5046984;28;20029;-72
2021/09/11 03:32:10;;;;;;;19.85;11.38;;;16.40;99.90;;;;;;5049070;28;20605;-73
2021/09/11 03:34:35;;;;;;;16.08;10.75;;;16.40;99.90;;;;;;5049464;28;20028;-72
2021/09/11 03:37:02;;;;;;;16.65;11.25;;;16.40;99.90;;;;;;5041770;28;20020;-73
2021/09/11 03:39:27;;;;;;;16.05;11.63;;;16.40;99.90;;;;;;5048933;28;20029;-72
2021/09/11 03:41:53;;;;;;;15.85;10.90;;;16.40;99.90;;;;;;5047082;28;20043;-72
2021/09/11 03:44:18;;;;;;;16.15;11.25;;;16.40;99.90;;;;;;5047729;28;20106;-72
2021/09/11 03:46:44;;;;;;;17.40;12.23;;;16.40;99.90;;;;;;5044833;28;20013;-72
2021/09/11 03:49:09;;;;;;;15.07;10.93;;;16.40;99.90;;;;;;5048189;28;20483;-73
2021/09/11 03:51:35;;;;;;;17.92;11.88;;;16.50;99.90;;;;;;5047441;28;20088;-72
2021/09/11 03:54:01;;;;;;;16.92;11.18;;;16.40;99.90;;;;;;5047166;28;20021;-72
2021/09/11 03:56:27;;;;;;;20.10;11.77;;;16.40;99.90;;;;;;5040680;28;20029;-73
2021/09/11 03:58:52;;;;;;;20.00;11.55;;;16.40;99.90;;;;;;5048723;28;20036;-73
2021/09/11 04:01:18;;;;;;;15.00;11.45;;;16.50;99.90;;;;;;5047501;28;20079;-72
2021/09/11 04:03:43;;;;;;;17.90;11.35;;;16.50;99.90;;;;;;5047928;28;20605;-73
2021/09/11 04:06:10;;;;;;;19.48;10.60;;;16.50;99.90;;;;;;5048900;28;20028;-72
2021/09/11 04:08:35;;;;;;;17.38;11.57;;;16.50;99.90;;;;;;5048513;28;20044;-72
2021/09/11 04:11:01;;;;;;;17.83;11.05;;;16.50;99.90;;;;;;5048394;28;20025;-72
2021/09/11 04:13:27;;;;;;;16.98;11.68;;;16.50;99.90;;;;;;5044561;28;20471;-72
2021/09/11 04:15:52;;;;;;;18.73;11.50;;;16.60;99.90;;;;;;5047082;28;20493;-73
2021/09/11 04:18:17;;;;;;;17.25;11.52;;;16.60;99.90;;;;;;5047593;28;20467;-72
2021/09/11 04:20:43;;;;;;;20.73;12.52;;;16.60;99.90;;;;;;5045316;28;20029;-72
2021/09/11 04:23:08;;;;;;;20.90;13.32;;;16.60;99.90;;;;;;5043699;28;20079;-72
2021/09/11 04:25:34;;;;;;;22.80;14.80;;;16.70;99.90;;;;;;5047792;28;20109;-72
2021/09/11 04:27:59;;;;;;;27.70;14.45;;;16.80;99.90;;;;;;5046997;28;20020;-73
2021/09/11 04:30:25;;;;;;;23.42;14.52;;;16.90;99.90;;;;;;5048263;28;20463;-73
2021/09/11 04:32:51;;;;;;;23.45;14.32;;;17.00;99.90;;;;;;5046206;28;20071;-72
2021/09/11 04:35:16;;;;;;;23.08;14.70;;;17.10;99.90;;;;;;5046926;28;20498;-72
2021/09/11 04:37:41;;;;;;;22.60;14.07;;;17.20;99.90;;;;;;5043499;28;20024;-72
2021/09/11 04:40:07;;;;;;;22.13;14.68;;;17.20;99.90;;;;;;5045876;28;20025;-72
2021/09/11 04:42:33;;;;;;;22.02;14.10;;;17.20;99.90;;;;;;5046547;28;20104;-72
2021/09/11 04:44:59;;;;;;;22.05;13.90;;;17.20;99.90;;;;;;5046018;28;20032;-72
2021/09/11 04:47:24;;;;;;;20.35;13.32;;;17.20;99.90;;;;;;5047641;28;20070;-72
2021/09/11 04:49:49;;;;;;;22.42;13.98;;;17.30;99.90;;;;;;5044809;28;20029;-72
2021/09/11 04:52:15;;;;;;;24.55;13.88;;;17.30;99.90;;;;;;5047049;28;20031;-72
2021/09/11 04:54:41;;;;;;;22.48;14.07;;;17.30;99.90;;;;;;5042639;28;20544;-72
2021/09/11 04:57:06;;;;;;;24.67;14.57;;;17.40;99.90;;;;;;5048125;28;20032;-72
2021/09/11 04:59:31;;;;;;;22.67;13.95;;;17.40;99.90;;;;;;5046482;28;20028;-73
2021/09/11 05:01:57;;;;;;;22.77;14.10;;;17.40;99.90;;;;;;5045978;28;20033;-72
2021/09/11 05:04:23;;;;;;;23.63;14.48;;;17.40;99.90;;;;;;5047465;28;20033;-72
2021/09/11 05:06:49;;;;;;;24.77;14.23;;;17.50;99.90;;;;;;5046789;28;20029;-73
2021/09/11 05:09:14;;;;;;;25.23;13.73;;;17.50;99.90;;;;;;5047092;28;20377;-73
2021/09/11 05:11:40;;;;;;;25.42;13.88;;;17.50;99.90;;;;;;5043492;28;20021;-72
2021/09/11 05:14:05;;;;;;;26.15;14.20;;;17.50;99.90;;;;;;5045960;28;20116;-72
2021/09/11 05:16:31;;;;;;;24.98;14.93;;;17.60;99.90;;;;;;5045330;28;20028;-72
2021/09/11 05:18:56;;;;;;;25.17;14.73;;;17.60;99.90;;;;;;5044677;28;20033;-72
2021/09/11 05:21:21;;;;;;;23.13;14.82;;;17.60;99.90;;;;;;5043672;28;20764;-73
2021/09/11 05:23:47;;;;;;;22.05;14.68;;;17.60;99.90;;;;;;5046258;28;20056;-72
2021/09/11 05:26:12;;;;;;;23.48;13.60;;;17.60;99.90;;;;;;5047876;28;20079;-73
2021/09/11 05:28:38;;;;;;;24.05;13.93;;;17.70;99.90;;;;;;5045908;28;20040;-73
2021/09/11 05:31:04;;;;;;;20.75;14.88;;;17.70;99.90;;;;;;5046930;28;20048;-73
2021/09/11 05:33:29;;;;;;;25.13;14.20;;;17.80;99.90;;;;;;5053063;28;20451;-73
2021/09/11 05:35:55;;;;;;;22.75;14.48;;;17.80;99.90;;;;;;5052080;28;20029;-73
2021/09/11 05:38:20;;;;;;;21.83;14.07;;;17.90;99.90;;;;;;5045432;28;20033;-73
2021/09/11 05:40:46;;;;;;;23.70;13.57;;;17.90;99.90;;;;;;5049889;28;20014;-73
2021/09/11 05:43:11;;;;;;;23.50;13.32;;;18.00;99.90;;;;;;5047887;28;20108;-73
2021/09/11 05:45:37;;;;;;;20.67;13.68;;;18.00;99.90;;;;;;5042576;28;20030;-73
2021/09/11 05:48:03;;;;;;;20.67;13.52;;;18.10;99.90;;;;;;5049654;28;20031;-73
2021/09/11 05:50:28;;;;;;;19.80;13.38;;;18.10;99.90;;;;;;5048456;28;20127;-74
2021/09/11 05:52:53;;;;;;;20.52;12.68;;;18.10;99.90;;;;;;5049009;28;20144;-73
2021/09/11 05:55:19;;;;;;;21.88;13.32;;;18.20;99.90;;;;;;5049324;28;20047;-72
2021/09/11 05:57:44;;;;;;;19.15;12.32;;;18.30;99.90;;;;;;5047938;28;20029;-73
2021/09/11 06:00:10;;;;;;;19.25;13.00;;;18.30;99.90;;;;;;5054843;28;20036;-73
2021/09/11 06:02:36;;;;;;;20.27;12.73;;;18.30;99.90;;;;;;5048706;28;20026;-73
2021/09/11 06:05:02;;;;;;;22.33;13.38;;;18.30;99.90;;;;;;5044517;28;20083;-72
2021/09/11 06:07:27;;;;;;;25.15;13.05;;;18.30;99.90;;;;;;5049541;28;20088;-73
2021/09/11 06:09:53;;;;;;;19.05;12.38;;;18.30;99.90;;;;;;5043725;28;20089;-73
2021/09/11 06:12:18;;;;;;;19.98;12.65;;;18.30;99.90;;;;;;5050969;28;20036;-73
2021/09/11 06:14:43;;;;;;;27.02;13.73;;;18.30;99.90;;;;;;5050677;28;20124;-73
2021/09/11 06:17:10;;;;;;;21.60;12.70;;;18.30;99.90;;;;;;5050609;28;20028;-73
2021/09/11 06:19:36;;;;;;;22.38;12.80;;;18.40;99.90;;;;;;5047258;28;20082;-73
2021/09/11 06:22:02;;;;;;;20.73;12.30;;;18.40;99.90;;;;;;5050511;28;20025;-73
2021/09/11 06:24:29;;;;;;;19.15;13.27;;;18.30;99.90;;;;;;5052673;28;20120;-73
2021/09/11 06:26:54;;;;;;;23.52;12.27;;;18.40;99.90;;;;;;5051673;28;20032;-73
2021/09/11 06:29:20;;;;;;;22.30;13.85;;;18.40;99.90;;;;;;5046857;28;20025;-72
2021/09/11 06:31:46;;;;;;;19.02;13.02;;;18.40;99.90;;;;;;5049111;28;20025;-73
2021/09/11 06:34:11;;;;;;;20.42;13.13;;;18.50;99.90;;;;;;5050150;28;20044;-73
2021/09/11 06:36:37;;;;;;;23.88;13.50;;;18.50;99.90;;;;;;5049750;28;20025;-70
2021/09/11 06:39:03;;;;;;;21.88;13.27;;;18.50;99.90;;;;;;5050156;28;20600;-70
2021/09/11 06:41:28;;;;;;;22.30;12.93;;;18.50;99.90;;;;;;5053295;28;20039;-74
2021/09/11 06:43:54;;;;;;;23.08;13.48;;;18.50;99.90;;;;;;5048347;28;20403;-71
2021/09/11 06:46:19;;;;;;;19.23;12.50;;;18.60;99.90;;;;;;5050840;28;20021;-71
2021/09/11 06:48:44;;;;;;;23.95;13.32;;;18.60;99.90;;;;;;5049416;28;20360;-71
2021/09/11 06:51:13;;;;;;;20.73;13.32;;;18.70;99.90;;;;;;5050244;28;20073;-72
2021/09/11 06:53:39;;;;;;;21.20;13.57;;;18.80;99.90;;;;;;5047712;28;20082;-72
2021/09/11 06:56:05;;;;;;;20.20;12.35;;;18.80;99.90;;;;;;5050110;28;20033;-72
2021/09/11 06:58:30;;;;;;;20.13;12.95;;;18.90;99.90;;;;;;5049539;28;20062;-71
2021/09/11 07:00:56;;;;;;;19.48;12.60;;;19.00;99.90;;;;;;5049854;28;20029;-70
2021/09/11 07:03:21;;;;;;;21.33;11.90;;;19.00;99.90;;;;;;5048213;28;20024;-70
2021/09/11 07:05:47;;;;;;;19.80;12.82;;;19.10;99.90;;;;;;5049828;28;20043;-71
2021/09/11 07:08:12;;;;;;;22.20;12.70;;;19.10;99.90;;;;;;5046405;28;20029;-69
2021/09/11 07:10:38;;;;;;;19.33;11.98;;;19.10;99.90;;;;;;5049382;28;20108;-71
2021/09/11 07:13:04;;;;;;;19.35;11.43;;;19.10;99.90;;;;;;5035621;28;20033;-71
2021/09/11 07:15:29;;;;;;;17.90;11.23;;;19.20;99.90;;;;;;5040684;28;20730;-71
2021/09/11 07:17:55;;;;;;;17.70;11.18;;;19.30;99.90;;;;;;5038449;28;20491;-71
2021/09/11 07:20:21;;;;;;;18.10;12.27;;;19.40;99.90;;;;;;5039877;28;20025;-70
2021/09/11 07:22:47;;;;;;;23.27;12.18;;;19.40;99.90;;;;;;5038603;28;20030;-71
2021/09/11 07:25:13;;;;;;;18.20;12.00;;;19.40;99.90;;;;;;5039432;28;20029;-71
2021/09/11 07:27:39;;;;;;;21.40;11.70;;;19.50;99.90;;;;;;5039911;28;20056;-71
2021/09/11 07:30:05;;;;;;;24.80;11.70;;;19.50;99.90;;;;;;5039272;28;20107;-71
2021/09/11 07:32:31;;;;;;;17.30;11.00;;;19.60;99.90;;;;;;5040947;28;20029;-70
2021/09/11 07:34:56;;;;;;;21.90;11.15;;;19.60;99.90;;;;;;5039019;28;20060;-71
2021/09/11 07:37:21;;;;;;;21.00;12.10;;;19.70;99.90;;;;;;5039308;28;20521;-72
2021/09/11 07:39:47;;;;;;;21.10;10.82;;;19.80;99.90;;;;;;5041381;28;20036;-73
2021/09/11 07:42:16;;;;;;;17.13;11.05;;;19.90;99.90;;;;;;5042853;28;20035;-73
2021/09/11 07:44:42;;;;;;;18.92;10.15;;;19.90;99.90;;;;;;5045591;28;20047;-73
2021/09/11 07:47:08;;;;;;;17.17;10.48;;;19.90;99.90;;;;;;5048563;28;20528;-73
2021/09/11 07:49:33;;;;;;;19.55;11.27;;;19.90;99.90;;;;;;5049728;28;20021;-73
2021/09/11 07:51:59;;;;;;;17.13;10.23;;;20.00;99.90;;;;;;5048382;28;20051;-73
2021/09/11 07:54:24;;;;;;;20.48;12.07;;;19.90;99.90;;;;;;5047890;28;20103;-73
2021/09/11 07:56:49;;;;;;;20.35;10.27;;;19.90;99.90;;;;;;5048747;28;20360;-73
2021/09/11 07:59:15;;;;;;;16.63;11.27;;;19.90;99.90;;;;;;5053356;28;20021;-73
2021/09/11 08:01:40;;;;;;;18.00;10.63;;;19.90;99.90;;;;;;5049504;28;20375;-73
2021/09/11 08:04:06;;;;;;;17.15;9.75;;;19.80;99.90;;;;;;5046080;28;20108;-73
2021/09/11 08:06:31;;;;;;;15.50;10.02;;;19.90;99.90;;;;;;5044658;28;20136;-73
2021/09/11 08:08:57;;;;;;;15.75;10.50;;;19.80;99.90;;;;;;5045084;28;20029;-73
2021/09/11 08:11:22;;;;;;;18.67;10.82;;;19.80;99.90;;;;;;5047725;28;20027;-72
2021/09/11 08:13:48;;;;;;;15.23;10.10;;;19.80;99.90;;;;;;5046558;28;20025;-73
2021/09/11 08:16:13;;;;;;;15.10;10.30;;;19.90;99.90;;;;;;5049239;28;20422;-73
2021/09/11 08:18:39;;;;;;;14.90;10.30;;;19.90;99.90;;;;;;5047435;28;20048;-73
2021/09/11 08:21:04;;;;;;;14.68;10.07;;;19.90;99.90;;;;;;5046437;28;20021;-72
2021/09/11 08:23:31;;;;;;;16.05;10.00;;;20.00;99.90;;;;;;5050262;28;20021;-73
2021/09/11 08:25:56;;;;;;;15.73;10.10;;;20.10;99.90;;;;;;5043034;28;20025;-72
2021/09/11 08:28:22;;;;;;;17.27;9.40;;;20.20;99.90;;;;;;5040555;28;20115;-72
2021/09/11 08:30:48;;;;;;;17.80;9.52;;;20.20;99.90;;;;;;5044287;28;20028;-72
2021/09/11 08:33:14;;;;;;;13.82;9.57;;;20.20;99.90;;;;;;5046924;28;20029;-72
2021/09/11 08:35:40;;;;;;;13.25;9.00;;;20.30;99.90;;;;;;5046071;28;20037;-72
2021/09/11 08:38:06;;;;;;;13.95;9.25;;;20.40;99.90;;;;;;5048507;28;20095;-75
2021/09/11 08:40:31;;;;;;;11.98;8.40;;;20.40;99.90;;;;;;5048420;28;20391;-70
2021/09/11 08:42:57;;;;;;;15.05;8.00;;;20.50;99.90;;;;;;5044948;28;20369;-72
2021/09/11 08:45:23;;;;;;;16.65;9.85;;;20.50;99.90;;;;;;5045271;28;20025;-72
2021/09/11 08:47:49;;;;;;;16.02;10.32;;;20.60;99.90;;;;;;5042090;28;20025;-75
2021/09/11 08:50:17;;;;;;;14.18;8.82;;;20.50;99.90;;;;;;5039951;28;20024;-76
2021/09/11 08:52:47;;;;;;;12.82;8.85;;;20.60;99.90;;;;;;5044212;28;20048;-76
2021/09/11 08:55:14;;;;;;;11.67;7.90;;;20.60;99.90;;;;;;5038672;28;20053;-79
2021/09/11 08:57:57;;;;;;;13.43;8.30;;;20.60;99.90;;;;;;5041714;28;20111;-76
2021/09/11 09:00:46;;;;;;;11.18;7.72;;;20.70;99.90;;;;;;5041048;28;20157;-77
2021/09/11 09:03:26;;;;;;;12.35;7.82;;;20.80;99.90;;;;;;5043563;28;20647;-77
2021/09/11 09:05:52;;;;;;;10.50;7.30;;;20.90;99.90;;;;;;5036653;28;20021;-76
2021/09/11 09:08:28;;;;;;;13.77;8.48;;;20.90;99.90;;;;;;5047909;28;20017;-76
2021/09/11 09:10:55;;;;;;;11.20;7.57;;;20.90;99.90;;;;;;5046279;28;20025;-75
2021/09/11 09:13:20;;;;;;;15.88;9.80;;;20.70;99.90;;;;;;5038100;28;20036;-77
2021/09/11 09:15:46;;;;;;;12.45;8.45;;;20.70;99.90;;;;;;5047287;28;20021;-76
2021/09/11 09:18:15;;;;;;;12.98;8.98;;;20.60;99.90;;;;;;5040502;28;20467;-76
2021/09/11 09:20:41;;;;;;;16.48;9.30;;;20.60;99.90;;;;;;5046059;28;20364;-76
2021/09/11 09:23:07;;;;;;;16.60;9.85;;;20.60;99.90;;;;;;5048450;28;20112;-77
2021/09/11 09:25:37;;;;;;;13.45;9.23;;;20.70;99.90;;;;;;5047958;28;20426;-76
2021/09/11 09:28:06;;;;;;;13.10;8.32;;;20.60;99.90;;;;;;5040074;28;20427;-76
2021/09/11 09:30:46;;;;;;;13.18;8.30;;;20.70;99.90;;;;;;5048593;28;20071;-76
2021/09/11 09:33:20;;;;;;;12.07;7.65;;;20.80;99.90;;;;;;5040487;28;20030;-76
2021/09/11 09:35:46;;;;;;;13.20;8.18;;;20.90;99.90;;;;;;5046220;28;20059;-77
2021/09/11 09:38:12;;;;;;;12.68;7.72;;;21.10;99.90;;;;;;5048093;28;20082;-77
2021/09/11 09:40:51;;;;;;;9.32;6.90;;;21.20;99.90;;;;;;5047447;28;20025;-76
2021/09/11 09:43:42;;;;;;;10.48;7.10;;;21.20;99.90;;;;;;5047557;28;20480;-76
2021/09/11 09:46:11;;;;;;;10.13;6.78;;;21.20;99.90;;;;;;5043578;28;20025;-76
2021/09/11 09:48:41;;;;;;;12.60;7.15;;;21.20;99.90;;;;;;5040485;28;20033;-77
2021/09/11 09:51:13;;;;;;;10.70;7.07;;;21.30;99.90;;;;;;5043716;28;20115;-81
2021/09/11 09:53:41;;;;;;;10.75;6.72;;;21.40;99.90;;;;;;5046260;28;20034;-77
2021/09/11 09:56:07;;;;;;;9.48;6.63;;;21.60;99.90;;;;;;5040868;28;20399;-73
2021/09/11 09:58:33;;;;;;;11.20;6.80;;;21.70;99.90;;;;;;5043096;28;20044;-72
2021/09/11 10:00:59;;;;;;;10.55;6.80;;;21.80;99.90;;;;;;5038728;28;20040;-72
2021/09/11 10:03:25;;;;;;;12.85;7.75;;;21.80;99.90;;;;;;5043712;28;20029;-74
2021/09/11 10:05:56;;;;;;;11.50;8.02;;;21.70;99.90;;;;;;5046579;28;20116;-72
2021/09/11 10:08:22;;;;;;;13.57;7.53;;;21.60;99.90;;;;;;5046229;28;20029;-71
2021/09/11 10:10:49;;;;;;;12.73;7.97;;;21.40;99.90;;;;;;5040366;28;20043;-73
2021/09/11 10:13:19;;;;;;;12.00;7.47;;;21.30;99.90;;;;;;5046024;28;20108;-73
2021/09/11 10:15:57;;;;;;;14.52;8.13;;;21.20;99.90;;;;;;5042284;28;20029;-73
2021/09/11 10:18:34;;;;;;;8.75;6.65;;;21.30;99.90;;;;;;5047025;28;20057;-76
2021/09/11 10:21:14;;;;;;;8.65;6.60;;;21.50;99.90;;;;;;5043621;28;20033;-83
2021/09/11 10:23:41;;;;;;;9.15;7.03;;;21.50;99.90;;;;;;5044216;28;20059;-73
2021/09/11 10:26:48;;;;;;;9.02;6.90;;;21.60;99.90;;;;;;5049529;28;20036;-73
2021/09/11 10:29:35;;;;;;;8.63;6.93;;;21.70;99.90;;;;;;5050762;28;20017;-72
2021/09/11 10:32:05;;;;;;;8.77;6.30;;;21.80;99.90;;;;;;5047367;28;20029;-75
2021/09/11 10:34:47;;;;;;;9.57;6.80;;;21.90;99.90;;;;;;5046388;28;20102;-74
2021/09/11 10:37:22;;;;;;;8.00;5.97;;;22.00;99.90;;;;;;5042645;28;20104;-74
2021/09/11 10:40:11;;;;;;;9.18;6.03;;;22.10;99.90;;;;;;5041034;28;20388;-73
2021/09/11 10:43:04;;;;;;;9.95;6.22;;;22.20;99.90;;;;;;5043650;28;20090;-73
2021/09/11 10:45:54;;;;;;;7.57;5.80;;;22.40;99.90;;;;;;5049126;28;20033;-72
2021/09/11 10:48:44;;;;;;;8.07;5.40;;;22.50;99.90;;;;;;5044985;28;20025;-70
2021/09/11 10:51:23;;;;;;;12.13;5.53;;;22.60;99.90;;;;;;5044262;28;20099;-72
2021/09/11 10:53:58;;;;;;;9.10;6.10;;;22.50;99.90;;;;;;5038991;28;20033;-74
2021/09/11 10:56:26;;;;;;;9.02;5.63;;;22.40;99.90;;;;;;5038613;28;20032;-73
2021/09/11 10:59:16;;;;;;;9.25;5.00;;;22.30;99.90;;;;;;5044092;28;20181;-72
2021/09/11 11:02:00;;;;;;;8.52;5.28;;;22.30;99.90;;;;;;5041804;28;20033;-72
2021/09/11 11:04:29;;;;;;;4.93;4.35;;;22.30;99.90;;;;;;5039728;28;20038;-72
2021/09/11 11:06:56;;;;;;;6.45;4.85;;;22.40;99.90;;;;;;5046279;28;20021;-72
2021/09/11 11:09:22;;;;;;;6.25;4.50;;;22.50;99.90;;;;;;5044049;28;20521;-73
2021/09/11 11:11:50;;;;;;;6.95;4.75;;;22.50;99.90;;;;;;5046842;28;20052;-72
2021/09/11 11:14:16;;;;;;;5.80;4.47;;;22.50;99.90;;;;;;5046599;28;20060;-73
2021/09/11 11:16:46;;;;;;;5.55;4.53;;;22.70;99.90;;;;;;5044750;28;20052;-73
2021/09/11 11:19:21;;;;;;;7.88;4.20;;;22.90;99.90;;;;;;5042918;28;20033;-73
2021/09/11 11:22:05;;;;;;;4.90;3.72;;;23.00;99.90;;;;;;5040216;28;20049;-72
2021/09/11 11:24:36;;;;;;;3.85;3.42;;;23.20;99.90;;;;;;5041627;28;20033;-72
2021/09/11 11:27:13;;;;;;;4.63;3.63;;;23.50;99.90;;;;;;5041337;28;20494;-73
2021/09/11 11:29:41;;;;;;;6.60;3.28;;;23.90;99.90;;;;;;5050187;28;20040;-72
2021/09/11 11:32:09;;;;;;;3.15;2.60;;;24.20;99.90;;;;;;5041470;28;20746;-73
2021/09/11 11:34:36;;;;;;;5.18;3.22;;;24.50;99.90;;;;;;5045786;28;20032;-73
2021/09/11 11:37:04;;;;;;;4.63;2.88;;;25.00;98.60;;;;;;5040496;28;20797;-73
2021/09/11 11:39:42;;;;;;;5.30;2.70;;;25.50;96.70;;;;;;5045707;28;20036;-74
2021/09/11 11:42:11;;;;;;;4.50;3.67;;;25.90;96.20;;;;;;5044074;28;20029;-74
2021/09/11 11:44:46;;;;;;;5.18;3.40;;;26.30;92.20;;;;;;5045735;28;20033;-75
2021/09/11 11:47:33;;;;;;;3.42;2.90;;;26.70;90.40;;;;;;5045971;28;20568;-74
2021/09/11 11:49:59;;;;;;;6.05;3.22;;;27.10;88.90;;;;;;5035112;28;20033;-74
2021/09/11 11:52:25;;;;;;;3.15;2.85;;;27.60;84.80;;;;;;5045399;28;20045;-74
2021/09/11 11:54:51;;;;;;;3.40;3.10;;;27.90;84.30;;;;;;5047834;28;20237;-75
2021/09/11 11:57:23;;;;;;;5.75;2.83;;;28.30;80.40;;;;;;5048110;28;20119;-75
2021/09/11 12:00:09;;;;;;;5.75;3.00;;;28.70;74.80;;;;;;5044335;28;20483;-76
2021/09/11 12:02:40;;;;;;;4.50;3.10;;;29.10;75.30;;;;;;5038121;28;20033;-75
2021/09/11 12:05:19;;;;;;;;;;;29.50;74.20;;;;;;5050658;28;20048;-73
2021/09/11 12:07:53;;;;;;;3.63;2.90;;;29.70;70.90;;;;;;5042606;28;19908;-74
2021/09/11 12:10:19;;;;;;;2.65;2.45;;;29.90;69.70;;;;;;5043623;28;20025;-72
2021/09/11 12:12:50;;;;;;;3.20;2.38;;;30.00;67.80;;;;;;5041606;28;20082;-73
2021/09/11 12:15:19;;;;;;;3.05;2.72;;;29.60;69.10;;;;;;5039506;28;20029;-74
2021/09/11 12:17:56;;;;;;;3.28;2.65;;;29.00;69.50;;;;;;5040552;28;20162;-73
2021/09/11 12:20:24;;;;;;;5.03;2.47;;;28.50;70.10;;;;;;5041909;28;20063;-73
2021/09/11 12:23:10;;;;;;;3.05;2.75;;;29.00;71.20;;;;;;5047671;28;20847;-75
2021/09/11 12:26:11;;;;;;;3.85;3.00;;;29.50;68.10;;;;;;5037985;28;20075;-73
2021/09/11 12:28:49;;;;;;;3.00;2.70;;;29.80;64.50;;;;;;4998189;28;20044;-74
2021/09/11 12:31:21;;;;;;;3.22;2.70;;;29.60;67.20;;;;;;5041601;28;20025;-74
2021/09/11 12:34:14;;;;;;;3.35;2.70;;;29.10;68.10;;;;;;5037626;28;20017;-72
2021/09/11 12:36:42;;;;;;;3.85;2.92;;;29.30;68.40;;;;;;5041216;28;20036;-73